createdAt,value
2023-06-04T00:09:21.822Z,0.00
2023-06-04T00:19:22.395Z,0.00
2023-06-04T00:29:22.935Z,0.00
2023-06-04T00:39:23.508Z,0.00
2023-06-04T00:49:24.075Z,0.00
2023-06-04T00:59:24.611Z,0.00
2023-06-04T01:09:25.174Z,0.00
2023-06-04T01:19:25.728Z,0.00
2023-06-04T01:29:26.284Z,0.00
2023-06-04T01:39:26.844Z,0.00
2023-06-04T01:49:27.410Z,0.00
2023-06-04T01:59:27.963Z,0.00
2023-06-04T02:09:28.501Z,1.00
2023-06-04T02:19:28.985Z,2.00
2023-06-04T02:29:29.502Z,1.00
2023-06-04T02:39:30.024Z,4.00
2023-06-04T02:49:30.524Z,12.00
2023-06-04T02:59:31.011Z,32.00
2023-06-04T03:09:31.503Z,95.00
2023-06-04T03:19:32.062Z,195.00
2023-06-04T03:29:32.908Z,316.00
2023-06-04T03:39:33.379Z,440.00
2023-06-04T03:49:33.941Z,555.00
2023-06-04T03:59:34.450Z,663.00
2023-06-04T04:09:35.026Z,784.00
2023-06-04T04:19:35.558Z,904.00
2023-06-04T04:29:36.099Z,1013.00
2023-06-04T04:39:36.617Z,344.00
2023-06-04T04:49:44.127Z,904.00
2023-06-04T04:59:37.625Z,2080.00
2023-06-04T05:09:38.118Z,2429.00
2023-06-04T05:19:38.620Z,2367.00
2023-06-04T05:29:39.136Z,2525.00
2023-06-04T05:39:39.636Z,2602.00
2023-06-04T05:49:40.144Z,2589.00
2023-06-04T05:59:40.650Z,2464.00
2023-06-04T06:09:41.146Z,2450.00
2023-06-04T06:19:41.665Z,1798.00
2023-06-04T06:29:42.163Z,1715.00
2023-06-04T06:39:42.658Z,1781.00
2023-06-04T06:49:43.158Z,2113.00
2023-06-04T06:59:43.659Z,1735.00
2023-06-04T07:09:44.185Z,1753.00
2023-06-04T07:19:44.684Z,1780.00
2023-06-04T07:29:45.176Z,1912.00
2023-06-04T07:39:45.675Z,2008.00
2023-06-04T07:49:58.463Z,2190.00
2023-06-04T07:59:47.604Z,2348.00
2023-06-04T08:09:47.112Z,2464.00
2023-06-04T08:19:47.592Z,2572.00
2023-06-04T08:29:48.094Z,2746.00
2023-06-04T08:39:48.653Z,2966.00
2023-06-04T08:49:49.178Z,3100.00
2023-06-04T08:59:49.705Z,3235.00
2023-06-04T09:09:57.579Z,3519.00
2023-06-04T09:19:52.048Z,3532.00
2023-06-04T09:29:51.594Z,3794.00
2023-06-04T09:39:52.058Z,3917.00
2023-06-04T09:49:52.557Z,4150.00
2023-06-04T09:59:53.033Z,4243.00
2023-06-04T10:09:53.528Z,4361.00
2023-06-04T10:19:54.070Z,4562.00
2023-06-04T10:29:54.579Z,4585.00
2023-06-04T10:39:55.085Z,4804.00
2023-06-04T10:50:02.595Z,4769.00
2023-06-04T10:59:56.087Z,4883.00
2023-06-04T11:09:56.595Z,4972.00
2023-06-04T11:19:57.170Z,5061.00
2023-06-04T11:29:57.683Z,5163.00
2023-06-04T11:39:58.190Z,5146.00
2023-06-04T11:49:58.725Z,5084.00
2023-06-04T11:59:59.218Z,5450.00
2023-06-04T12:09:59.777Z,5213.00
2023-06-04T12:20:00.300Z,5139.00
2023-06-04T12:30:00.825Z,5103.00
2023-06-04T12:40:01.330Z,5114.00
2023-06-04T12:50:01.833Z,5104.00
2023-06-04T13:00:02.303Z,4854.00
2023-06-04T13:10:02.809Z,4946.00
2023-06-04T13:20:03.319Z,4787.00
2023-06-04T13:30:03.935Z,4700.00
2023-06-04T13:40:04.393Z,4762.00
2023-06-04T13:50:04.909Z,4229.00
2023-06-04T14:00:05.407Z,4238.00
2023-06-04T14:10:05.902Z,3982.00
2023-06-04T14:20:06.428Z,3901.00
2023-06-04T14:30:06.954Z,3777.00
2023-06-04T14:40:07.450Z,3578.00
2023-06-04T14:50:07.947Z,3414.00
2023-06-04T15:00:08.530Z,3250.00
2023-06-04T15:10:08.981Z,3089.00
2023-06-04T15:20:09.495Z,2850.00
2023-06-04T15:30:10.007Z,2732.00
2023-06-04T15:40:10.512Z,2580.00
2023-06-04T15:50:11.009Z,2438.00
2023-06-04T16:00:11.532Z,2288.00
2023-06-04T16:10:12.042Z,2167.00
2023-06-04T16:20:12.536Z,2037.00
2023-06-04T16:30:13.071Z,1850.00
2023-06-04T16:40:13.600Z,1714.00
2023-06-04T16:50:22.118Z,1663.00
2023-06-04T17:00:26.294Z,1724.00
2023-06-04T17:10:16.471Z,1449.00
2023-06-04T17:20:15.969Z,1417.00
2023-06-04T17:30:16.469Z,1360.00
2023-06-04T17:40:16.992Z,1255.00
2023-06-04T17:50:17.500Z,1233.00
2023-06-04T18:00:18.014Z,1168.00
2023-06-04T18:10:18.512Z,1016.00
2023-06-04T18:20:19.004Z,807.00
2023-06-04T18:30:19.519Z,687.00
2023-06-04T18:40:20.010Z,575.00
2023-06-04T18:50:20.510Z,462.00
2023-06-04T19:00:21.015Z,352.00
2023-06-04T19:10:21.514Z,244.00
2023-06-04T19:20:22.019Z,143.00
2023-06-04T19:30:22.541Z,74.00
2023-06-04T19:40:23.029Z,33.00
2023-06-04T19:50:23.534Z,12.00
2023-06-04T20:00:24.042Z,4.00
2023-06-04T20:10:24.548Z,1.00
2023-06-04T20:20:25.108Z,0.00
2023-06-04T20:30:25.691Z,0.00
2023-06-04T20:40:26.276Z,0.00
2023-06-04T20:50:26.854Z,0.00
2023-06-04T21:00:27.426Z,0.00
2023-06-04T21:10:27.983Z,0.00
2023-06-04T21:20:28.530Z,0.00
2023-06-04T21:30:29.087Z,0.00
2023-06-04T21:40:29.649Z,0.00
2023-06-04T21:50:30.205Z,0.00
2023-06-04T22:00:30.763Z,0.00
2023-06-04T22:10:31.320Z,0.00
2023-06-04T22:20:31.867Z,0.00
2023-06-04T22:30:32.409Z,0.00
2023-06-04T22:40:32.973Z,0.00
2023-06-04T22:50:33.525Z,0.00
2023-06-04T23:00:41.120Z,0.00
2023-06-04T23:10:34.632Z,0.00
2023-06-04T23:20:35.183Z,0.00
2023-06-04T23:30:35.730Z,0.00
2023-06-04T23:40:36.282Z,0.00
2023-06-04T23:50:36.857Z,0.00
